Broken Arrow, OK (74012)

3:35 PM CDT on September 30, 2016 (GMT -0500)
Country Aire | | Change Station

Elev 697 ft 36.05 °N, 95.82 °W | Updated 3 seconds ago

Clear
Clear
74.8 °F
Feels Like 78 °F
N
1.0
Wind Variable Wind from NNE
Gusts 7.0 mph

Today
High -- | Low -- °F
--% Chance of Precip.
Yesterday
High -- | Low -- °F
Precip. -- in
Pressure 30.16 in
Visibility 10.0 miles
Clouds Clear
Heat Index 78 °F
Dew Point 51 °F
Humidity 44%
Rainfall 0.00 in
Snow Depth Not available.
7:17 AM 7:07 PM
Waning Crescent, 0% visible
METAR KRVS 301953Z AUTO VRB05KT 10SM CLR 26/09 A3014 RMK AO2 SLP211 T02560089
Pressure 30.16 in
Visibility 10.0 miles
Clouds Clear
Heat Index 78 °F
Dew Point 51 °F
Humidity 44%
Rainfall 0.00 in
Snow Depth Not available.
7:17 AM 7:07 PM
Waning Crescent, 0% visible
METAR KRVS 301953Z AUTO VRB05KT 10SM CLR 26/09 A3014 RMK AO2 SLP211 T02560089

10-Day Weather Forecast

Almanac

Astronomy

Sep. 30, 2016 Rise Set
Actual Time
Civil Twilight
Nautical Twilight
Astronomical Twilight
Moon
Length of Visible Light
Length of Day
Tomorrow will be .
, % of the Moon is Illuminated

Today's Extremes

State Highs State Lows

Community

WunderPhotos

Upload Photos

1,942,764 photos uploaded!

WunderBlog® & News

Nearby

Air Quality

  Air Quality AQ Index Pollutant
Not available.

Snow Depth

Station Depth Elevation

Earthquake Activity

City Distance Mag. Time & Date
Minimum magnitude displayed is 2.5.

Coastal Water Temperatures

Place Temperature

Stations

Nearby Weather Stations

Station Location Temp. Windchill Dew Point Humidity Wind Precip. Elev Updated Type
                   

Watches & Warnings

There are currently no watches in effect.